sensor_id;sensor_type;location;lat;lon;timestamp;temperature;humidity
23251;DHT22;11794;49.730;10.088;2022-09-03T00:02:37;15.30;96.30
23251;DHT22;11794;49.730;10.088;2022-09-03T00:10:20;15.30;96.70
23251;DHT22;11794;49.730;10.088;2022-09-03T00:12:49;15.30;96.90
23251;DHT22;11794;49.730;10.088;2022-09-03T00:15:18;15.20;97.10
23251;DHT22;11794;49.730;10.088;2022-09-03T00:18:01;15.20;97.20
23251;DHT22;11794;49.730;10.088;2022-09-03T00:23:43;15.10;97.70
23251;DHT22;11794;49.730;10.088;2022-09-03T00:28:46;15.10;97.90
23251;DHT22;11794;49.730;10.088;2022-09-03T00:31:35;15.00;98.10
23251;DHT22;11794;49.730;10.088;2022-09-03T00:34:09;15.00;98.30
23251;DHT22;11794;49.730;10.088;2022-09-03T00:36:40;15.00;98.30
23251;DHT22;11794;49.730;10.088;2022-09-03T00:39:11;15.10;98.40
23251;DHT22;11794;49.730;10.088;2022-09-03T00:41:47;15.10;98.30
23251;DHT22;11794;49.730;10.088;2022-09-03T00:44:27;15.10;98.30
23251;DHT22;11794;49.730;10.088;2022-09-03T00:47:04;15.00;98.50
23251;DHT22;11794;49.730;10.088;2022-09-03T00:52:45;14.90;98.90
23251;DHT22;11794;49.730;10.088;2022-09-03T00:55:21;14.90;99.10
23251;DHT22;11794;49.730;10.088;2022-09-03T01:00:19;14.80;99.30
23251;DHT22;11794;49.730;10.088;2022-09-03T01:03:04;14.90;99.50
23251;DHT22;11794;49.730;10.088;2022-09-03T01:11:10;14.70;99.90
23251;DHT22;11794;49.730;10.088;2022-09-03T01:14:14;14.70;99.90
23251;DHT22;11794;49.730;10.088;2022-09-03T01:22:55;14.80;99.90
23251;DHT22;11794;49.730;10.088;2022-09-03T01:25:50;14.70;99.90
23251;DHT22;11794;49.730;10.088;2022-09-03T01:30:54;14.70;99.90
23251;DHT22;11794;49.730;10.088;2022-09-03T01:33:34;14.70;99.90
23251;DHT22;11794;49.730;10.088;2022-09-03T01:36:18;14.70;99.90
23251;DHT22;11794;49.730;10.088;2022-09-03T01:38:50;14.60;99.90
23251;DHT22;11794;49.730;10.088;2022-09-03T01:47:33;14.50;99.90
23251;DHT22;11794;49.730;10.088;2022-09-03T01:50:13;14.50;99.90
23251;DHT22;11794;49.730;10.088;2022-09-03T01:53:04;14.50;99.90
23251;DHT22;11794;49.730;10.088;2022-09-03T01:58:23;14.40;99.90
23251;DHT22;11794;49.730;10.088;2022-09-03T02:00:56;14.40;99.90
23251;DHT22;11794;49.730;10.088;2022-09-03T02:03:24;14.40;99.90
23251;DHT22;11794;49.730;10.088;2022-09-03T02:05:57;14.40;99.90
23251;DHT22;11794;49.730;10.088;2022-09-03T02:08:24;14.40;99.90
23251;DHT22;11794;49.730;10.088;2022-09-03T02:10:52;14.50;99.90
23251;DHT22;11794;49.730;10.088;2022-09-03T02:13:22;14.50;99.90
23251;DHT22;11794;49.730;10.088;2022-09-03T02:15:51;14.40;99.90
23251;DHT22;11794;49.730;10.088;2022-09-03T02:18:23;14.30;99.90
23251;DHT22;11794;49.730;10.088;2022-09-03T02:20:52;14.30;99.90
23251;DHT22;11794;49.730;10.088;2022-09-03T02:23:18;14.30;99.90
23251;DHT22;11794;49.730;10.088;2022-09-03T02:25:47;14.30;99.90
23251;DHT22;11794;49.730;10.088;2022-09-03T02:28:14;14.30;99.90
23251;DHT22;11794;49.730;10.088;2022-09-03T02:30:41;14.30;99.90
23251;DHT22;11794;49.730;10.088;2022-09-03T02:33:07;14.30;99.90
23251;DHT22;11794;49.730;10.088;2022-09-03T02:35:33;14.30;99.90
23251;DHT22;11794;49.730;10.088;2022-09-03T02:38:09;14.30;99.90
23251;DHT22;11794;49.730;10.088;2022-09-03T02:40:35;14.20;99.90
23251;DHT22;11794;49.730;10.088;2022-09-03T02:43:02;14.10;99.90
23251;DHT22;11794;49.730;10.088;2022-09-03T02:45:29;14.00;99.90
23251;DHT22;11794;49.730;10.088;2022-09-03T02:47:58;14.00;99.90
23251;DHT22;11794;49.730;10.088;2022-09-03T02:50:25;14.00;99.90
23251;DHT22;11794;49.730;10.088;2022-09-03T02:52:51;14.00;99.90
23251;DHT22;11794;49.730;10.088;2022-09-03T02:55:17;14.10;99.90
23251;DHT22;11794;49.730;10.088;2022-09-03T02:57:44;14.10;99.90
23251;DHT22;11794;49.730;10.088;2022-09-03T03:00:10;14.10;99.90
23251;DHT22;11794;49.730;10.088;2022-09-03T03:02:36;14.10;99.90
23251;DHT22;11794;49.730;10.088;2022-09-03T03:05:02;14.00;99.90
23251;DHT22;11794;49.730;10.088;2022-09-03T03:07:31;14.00;99.90
23251;DHT22;11794;49.730;10.088;2022-09-03T03:09:58;14.00;99.90
23251;DHT22;11794;49.730;10.088;2022-09-03T03:12:24;13.90;99.90
23251;DHT22;11794;49.730;10.088;2022-09-03T03:14:49;14.00;99.90
23251;DHT22;11794;49.730;10.088;2022-09-03T03:17:15;14.00;99.90
23251;DHT22;11794;49.730;10.088;2022-09-03T03:19:41;14.00;99.90
23251;DHT22;11794;49.730;10.088;2022-09-03T03:22:06;14.10;99.90
23251;DHT22;11794;49.730;10.088;2022-09-03T03:24:32;14.10;99.90
23251;DHT22;11794;49.730;10.088;2022-09-03T03:26:57;14.10;99.90
23251;DHT22;11794;49.730;10.088;2022-09-03T03:29:23;14.20;99.90
23251;DHT22;11794;49.730;10.088;2022-09-03T03:31:50;14.10;99.90
23251;DHT22;11794;49.730;10.088;2022-09-03T03:34:15;14.20;99.90
23251;DHT22;11794;49.730;10.088;2022-09-03T03:36:41;14.10;99.90
23251;DHT22;11794;49.730;10.088;2022-09-03T03:39:06;14.10;99.90
23251;DHT22;11794;49.730;10.088;2022-09-03T03:41:34;14.10;99.90
23251;DHT22;11794;49.730;10.088;2022-09-03T03:44:05;14.10;99.90
23251;DHT22;11794;49.730;10.088;2022-09-03T03:46:33;14.10;99.90
23251;DHT22;11794;49.730;10.088;2022-09-03T03:48:59;14.20;99.90
23251;DHT22;11794;49.730;10.088;2022-09-03T03:51:25;14.10;99.90
23251;DHT22;11794;49.730;10.088;2022-09-03T03:53:55;14.10;99.90
23251;DHT22;11794;49.730;10.088;2022-09-03T03:56:21;14.00;99.90
23251;DHT22;11794;49.730;10.088;2022-09-03T03:58:47;14.00;99.90
23251;DHT22;11794;49.730;10.088;2022-09-03T04:01:18;14.00;99.90
23251;DHT22;11794;49.730;10.088;2022-09-03T04:03:44;13.90;99.90
23251;DHT22;11794;49.730;10.088;2022-09-03T04:06:12;13.90;99.90
23251;DHT22;11794;49.730;10.088;2022-09-03T04:08:40;13.80;99.90
23251;DHT22;11794;49.730;10.088;2022-09-03T04:11:09;13.80;99.90
23251;DHT22;11794;49.730;10.088;2022-09-03T04:13:39;13.90;99.90
23251;DHT22;11794;49.730;10.088;2022-09-03T04:18:35;13.80;99.90
23251;DHT22;11794;49.730;10.088;2022-09-03T04:21:12;13.80;99.90
23251;DHT22;11794;49.730;10.088;2022-09-03T04:23:43;13.90;99.90
23251;DHT22;11794;49.730;10.088;2022-09-03T04:26:11;13.90;99.90
23251;DHT22;11794;49.730;10.088;2022-09-03T04:28:37;13.80;99.90
23251;DHT22;11794;49.730;10.088;2022-09-03T04:31:05;13.90;99.90
23251;DHT22;11794;49.730;10.088;2022-09-03T04:33:32;13.90;99.90
23251;DHT22;11794;49.730;10.088;2022-09-03T04:36:12;13.90;99.90
23251;DHT22;11794;49.730;10.088;2022-09-03T04:38:40;13.90;99.90
23251;DHT22;11794;49.730;10.088;2022-09-03T04:41:09;13.90;99.90
23251;DHT22;11794;49.730;10.088;2022-09-03T04:43:35;13.90;99.90
23251;DHT22;11794;49.730;10.088;2022-09-03T04:46:05;13.90;99.90
23251;DHT22;11794;49.730;10.088;2022-09-03T04:48:32;13.90;99.90
23251;DHT22;11794;49.730;10.088;2022-09-03T04:51:09;13.90;99.90
23251;DHT22;11794;49.730;10.088;2022-09-03T04:53:38;14.00;99.90
23251;DHT22;11794;49.730;10.088;2022-09-03T04:56:16;14.10;99.90
23251;DHT22;11794;49.730;10.088;2022-09-03T04:58:42;14.00;99.90
23251;DHT22;11794;49.730;10.088;2022-09-03T05:01:14;14.10;99.90
23251;DHT22;11794;49.730;10.088;2022-09-03T05:03:40;14.10;99.90
23251;DHT22;11794;49.730;10.088;2022-09-03T05:06:06;14.20;99.90
23251;DHT22;11794;49.730;10.088;2022-09-03T05:08:33;14.20;99.90
23251;DHT22;11794;49.730;10.088;2022-09-03T05:11:05;14.20;99.90
23251;DHT22;11794;49.730;10.088;2022-09-03T05:13:31;14.30;99.90
23251;DHT22;11794;49.730;10.088;2022-09-03T05:15:59;14.30;99.90
23251;DHT22;11794;49.730;10.088;2022-09-03T05:18:25;14.40;99.90
23251;DHT22;11794;49.730;10.088;2022-09-03T05:21:03;14.40;99.90
23251;DHT22;11794;49.730;10.088;2022-09-03T05:23:30;14.40;99.90
23251;DHT22;11794;49.730;10.088;2022-09-03T05:26:01;14.50;99.90
23251;DHT22;11794;49.730;10.088;2022-09-03T05:28:29;14.50;99.90
23251;DHT22;11794;49.730;10.088;2022-09-03T05:31:12;14.50;99.90
23251;DHT22;11794;49.730;10.088;2022-09-03T05:33:41;14.60;99.90
23251;DHT22;11794;49.730;10.088;2022-09-03T05:36:09;14.50;99.90
23251;DHT22;11794;49.730;10.088;2022-09-03T05:38:35;14.50;99.90
23251;DHT22;11794;49.730;10.088;2022-09-03T05:41:06;14.50;99.90
23251;DHT22;11794;49.730;10.088;2022-09-03T05:43:32;14.60;99.90
23251;DHT22;11794;49.730;10.088;2022-09-03T05:46:06;14.60;99.90
23251;DHT22;11794;49.730;10.088;2022-09-03T05:48:35;14.60;99.90
23251;DHT22;11794;49.730;10.088;2022-09-03T05:51:03;14.70;99.90
23251;DHT22;11794;49.730;10.088;2022-09-03T05:53:31;14.70;99.90
23251;DHT22;11794;49.730;10.088;2022-09-03T05:55:58;14.70;99.90
23251;DHT22;11794;49.730;10.088;2022-09-03T05:58:28;14.70;99.90
23251;DHT22;11794;49.730;10.088;2022-09-03T06:00:54;14.70;99.90
23251;DHT22;11794;49.730;10.088;2022-09-03T06:03:19;14.80;99.90
23251;DHT22;11794;49.730;10.088;2022-09-03T06:05:52;14.80;99.90
23251;DHT22;11794;49.730;10.088;2022-09-03T06:08:19;14.80;99.90
23251;DHT22;11794;49.730;10.088;2022-09-03T06:10:45;14.90;99.90
23251;DHT22;11794;49.730;10.088;2022-09-03T06:13:10;14.90;99.90
23251;DHT22;11794;49.730;10.088;2022-09-03T06:15:36;14.90;99.90
23251;DHT22;11794;49.730;10.088;2022-09-03T06:18:02;15.00;99.90
23251;DHT22;11794;49.730;10.088;2022-09-03T06:20:27;15.10;99.90
23251;DHT22;11794;49.730;10.088;2022-09-03T06:22:54;15.10;99.90
23251;DHT22;11794;49.730;10.088;2022-09-03T06:25:20;15.20;99.90
23251;DHT22;11794;49.730;10.088;2022-09-03T06:27:45;15.30;99.90
23251;DHT22;11794;49.730;10.088;2022-09-03T06:30:12;15.40;99.90
23251;DHT22;11794;49.730;10.088;2022-09-03T06:32:48;15.50;99.90
23251;DHT22;11794;49.730;10.088;2022-09-03T06:35:17;15.40;99.90
23251;DHT22;11794;49.730;10.088;2022-09-03T06:37:43;15.60;99.90
23251;DHT22;11794;49.730;10.088;2022-09-03T06:40:09;15.60;99.90
23251;DHT22;11794;49.730;10.088;2022-09-03T06:42:38;15.70;99.90
23251;DHT22;11794;49.730;10.088;2022-09-03T06:45:04;15.60;99.90
23251;DHT22;11794;49.730;10.088;2022-09-03T06:47:31;15.60;99.90
23251;DHT22;11794;49.730;10.088;2022-09-03T06:49:58;15.70;99.90
23251;DHT22;11794;49.730;10.088;2022-09-03T06:52:24;15.80;99.90
23251;DHT22;11794;49.730;10.088;2022-09-03T06:54:50;15.90;99.90
23251;DHT22;11794;49.730;10.088;2022-09-03T06:57:16;16.00;99.90
23251;DHT22;11794;49.730;10.088;2022-09-03T06:59:41;16.10;99.90
23251;DHT22;11794;49.730;10.088;2022-09-03T07:02:08;16.30;99.90
23251;DHT22;11794;49.730;10.088;2022-09-03T07:04:34;16.50;99.90
23251;DHT22;11794;49.730;10.088;2022-09-03T07:06:59;16.50;99.90
23251;DHT22;11794;49.730;10.088;2022-09-03T07:09:25;16.50;99.90
23251;DHT22;11794;49.730;10.088;2022-09-03T07:11:51;16.60;99.90
23251;DHT22;11794;49.730;10.088;2022-09-03T07:14:18;16.70;99.90
23251;DHT22;11794;49.730;10.088;2022-09-03T07:16:44;17.00;99.90
23251;DHT22;11794;49.730;10.088;2022-09-03T07:19:10;17.10;99.90
23251;DHT22;11794;49.730;10.088;2022-09-03T07:21:38;17.10;99.90
23251;DHT22;11794;49.730;10.088;2022-09-03T07:24:07;17.20;99.90
23251;DHT22;11794;49.730;10.088;2022-09-03T07:26:39;17.20;99.90
23251;DHT22;11794;49.730;10.088;2022-09-03T07:29:06;17.20;99.90
23251;DHT22;11794;49.730;10.088;2022-09-03T07:31:37;17.10;99.90
23251;DHT22;11794;49.730;10.088;2022-09-03T07:34:21;17.10;99.90
23251;DHT22;11794;49.730;10.088;2022-09-03T07:36:49;17.20;99.90
23251;DHT22;11794;49.730;10.088;2022-09-03T07:39:15;17.50;99.90
23251;DHT22;11794;49.730;10.088;2022-09-03T07:41:42;18.00;99.90
23251;DHT22;11794;49.730;10.088;2022-09-03T07:44:11;18.10;99.90
23251;DHT22;11794;49.730;10.088;2022-09-03T07:46:37;18.20;99.90
23251;DHT22;11794;49.730;10.088;2022-09-03T07:49:03;18.60;99.90
23251;DHT22;11794;49.730;10.088;2022-09-03T07:51:35;18.80;99.90
23251;DHT22;11794;49.730;10.088;2022-09-03T07:54:03;19.00;99.90
23251;DHT22;11794;49.730;10.088;2022-09-03T07:56:29;19.20;98.90
23251;DHT22;11794;49.730;10.088;2022-09-03T07:58:56;19.20;98.40
23251;DHT22;11794;49.730;10.088;2022-09-03T08:01:22;19.40;98.50
23251;DHT22;11794;49.730;10.088;2022-09-03T08:03:50;20.00;97.60
23251;DHT22;11794;49.730;10.088;2022-09-03T08:06:19;20.70;96.90
23251;DHT22;11794;49.730;10.088;2022-09-03T08:08:44;21.40;95.50
23251;DHT22;11794;49.730;10.088;2022-09-03T08:11:12;22.10;94.20
23251;DHT22;11794;49.730;10.088;2022-09-03T08:13:43;22.60;93.10
23251;DHT22;11794;49.730;10.088;2022-09-03T08:16:10;22.90;92.60
23251;DHT22;11794;49.730;10.088;2022-09-03T08:18:37;23.30;91.60
23251;DHT22;11794;49.730;10.088;2022-09-03T08:21:08;23.00;91.40
23251;DHT22;11794;49.730;10.088;2022-09-03T08:23:38;22.50;91.70
23251;DHT22;11794;49.730;10.088;2022-09-03T08:26:04;21.80;92.50
23251;DHT22;11794;49.730;10.088;2022-09-03T08:28:32;21.00;93.20
23251;DHT22;11794;49.730;10.088;2022-09-03T08:31:12;20.60;94.60
23251;DHT22;11794;49.730;10.088;2022-09-03T08:33:43;20.80;94.80
23251;DHT22;11794;49.730;10.088;2022-09-03T08:36:11;20.70;94.60
23251;DHT22;11794;49.730;10.088;2022-09-03T08:38:38;20.70;94.60
23251;DHT22;11794;49.730;10.088;2022-09-03T08:41:12;20.80;95.00
23251;DHT22;11794;49.730;10.088;2022-09-03T08:44:03;20.90;94.40
23251;DHT22;11794;49.730;10.088;2022-09-03T08:46:59;21.20;94.50
23251;DHT22;11794;49.730;10.088;2022-09-03T08:55:19;23.20;92.60
23251;DHT22;11794;49.730;10.088;2022-09-03T08:57:59;24.00;91.20
23251;DHT22;11794;49.730;10.088;2022-09-03T09:03:30;25.10;87.50
23251;DHT22;11794;49.730;10.088;2022-09-03T09:09:16;25.70;85.70
23251;DHT22;11794;49.730;10.088;2022-09-03T09:11:57;25.30;86.80
23251;DHT22;11794;49.730;10.088;2022-09-03T09:20:35;25.60;84.20
23251;DHT22;11794;49.730;10.088;2022-09-03T09:23:07;25.20;84.80
23251;DHT22;11794;49.730;10.088;2022-09-03T09:25:44;24.90;85.50
23251;DHT22;11794;49.730;10.088;2022-09-03T09:28:22;24.50;85.30
23251;DHT22;11794;49.730;10.088;2022-09-03T09:30:50;24.50;86.30
23251;DHT22;11794;49.730;10.088;2022-09-03T09:33:17;25.10;85.00
23251;DHT22;11794;49.730;10.088;2022-09-03T09:35:44;24.60;84.50
23251;DHT22;11794;49.730;10.088;2022-09-03T09:38:10;24.30;86.70
23251;DHT22;11794;49.730;10.088;2022-09-03T09:40:39;24.90;86.90
23251;DHT22;11794;49.730;10.088;2022-09-03T09:45:43;26.40;83.50
23251;DHT22;11794;49.730;10.088;2022-09-03T09:48:20;26.60;80.70
23251;DHT22;11794;49.730;10.088;2022-09-03T09:50:46;26.20;81.40
23251;DHT22;11794;49.730;10.088;2022-09-03T09:53:12;26.80;82.90
23251;DHT22;11794;49.730;10.088;2022-09-03T09:55:56;27.00;79.90
23251;DHT22;11794;49.730;10.088;2022-09-03T09:58:27;27.40;78.80
23251;DHT22;11794;49.730;10.088;2022-09-03T10:01:10;26.90;78.80
23251;DHT22;11794;49.730;10.088;2022-09-03T10:03:48;26.00;81.50
23251;DHT22;11794;49.730;10.088;2022-09-03T10:06:15;26.00;81.40
23251;DHT22;11794;49.730;10.088;2022-09-03T10:09:26;26.70;81.40
23251;DHT22;11794;49.730;10.088;2022-09-03T10:12:21;27.40;80.40
23251;DHT22;11794;49.730;10.088;2022-09-03T10:15:01;26.70;79.60
23251;DHT22;11794;49.730;10.088;2022-09-03T10:20:53;26.30;82.40
23251;DHT22;11794;49.730;10.088;2022-09-03T10:23:26;27.00;80.70
23251;DHT22;11794;49.730;10.088;2022-09-03T10:26:12;27.30;81.50
23251;DHT22;11794;49.730;10.088;2022-09-03T10:28:40;27.60;79.40
23251;DHT22;11794;49.730;10.088;2022-09-03T10:31:49;27.00;79.90
23251;DHT22;11794;49.730;10.088;2022-09-03T10:34:34;26.80;82.10
23251;DHT22;11794;49.730;10.088;2022-09-03T10:37:32;27.40;82.00
23251;DHT22;11794;49.730;10.088;2022-09-03T10:48:36;30.50;74.40
23251;DHT22;11794;49.730;10.088;2022-09-03T10:56:40;30.00;72.80
23251;DHT22;11794;49.730;10.088;2022-09-03T10:59:35;28.50;75.10
23251;DHT22;11794;49.730;10.088;2022-09-03T11:02:27;27.70;78.00
23251;DHT22;11794;49.730;10.088;2022-09-03T11:05:04;27.20;78.60
23251;DHT22;11794;49.730;10.088;2022-09-03T11:07:36;27.00;79.70
23251;DHT22;11794;49.730;10.088;2022-09-03T11:10:24;26.60;80.70
23251;DHT22;11794;49.730;10.088;2022-09-03T11:16:08;27.00;80.90
23251;DHT22;11794;49.730;10.088;2022-09-03T11:18:54;27.20;81.20
23251;DHT22;11794;49.730;10.088;2022-09-03T11:21:23;28.10;79.10
23251;DHT22;11794;49.730;10.088;2022-09-03T11:24:16;29.10;76.20
23251;DHT22;11794;49.730;10.088;2022-09-03T11:29:49;30.90;73.10
23251;DHT22;11794;49.730;10.088;2022-09-03T11:32:48;31.40;72.40
23251;DHT22;11794;49.730;10.088;2022-09-03T11:35:24;31.50;71.30
23251;DHT22;11794;49.730;10.088;2022-09-03T11:37:57;31.90;71.80
23251;DHT22;11794;49.730;10.088;2022-09-03T11:40:38;32.50;69.90
23251;DHT22;11794;49.730;10.088;2022-09-03T11:43:26;32.60;69.80
23251;DHT22;11794;49.730;10.088;2022-09-03T11:48:44;32.40;69.50
23251;DHT22;11794;49.730;10.088;2022-09-03T11:51:33;32.80;68.40
23251;DHT22;11794;49.730;10.088;2022-09-03T11:56:41;33.00;67.40
23251;DHT22;11794;49.730;10.088;2022-09-03T12:01:49;32.60;68.50
23251;DHT22;11794;49.730;10.088;2022-09-03T12:04:19;32.50;68.80
23251;DHT22;11794;49.730;10.088;2022-09-03T12:09:31;32.80;67.20
23251;DHT22;11794;49.730;10.088;2022-09-03T12:20:45;31.60;68.40
23251;DHT22;11794;49.730;10.088;2022-09-03T12:23:25;31.30;69.20
23251;DHT22;11794;49.730;10.088;2022-09-03T12:25:51;31.20;70.00
23251;DHT22;11794;49.730;10.088;2022-09-03T12:28:20;30.50;71.10
23251;DHT22;11794;49.730;10.088;2022-09-03T12:30:48;30.10;71.80
23251;DHT22;11794;49.730;10.088;2022-09-03T12:33:17;29.50;73.00
23251;DHT22;11794;49.730;10.088;2022-09-03T12:35:55;29.20;74.20
23251;DHT22;11794;49.730;10.088;2022-09-03T12:38:25;28.80;74.10
23251;DHT22;11794;49.730;10.088;2022-09-03T12:40:50;28.30;75.80
23251;DHT22;11794;49.730;10.088;2022-09-03T12:43:17;28.00;76.40
23251;DHT22;11794;49.730;10.088;2022-09-03T12:45:44;27.70;76.60
23251;DHT22;11794;49.730;10.088;2022-09-03T12:48:20;27.40;77.50
23251;DHT22;11794;49.730;10.088;2022-09-03T12:50:48;27.60;78.90
23251;DHT22;11794;49.730;10.088;2022-09-03T12:53:21;27.70;78.70
23251;DHT22;11794;49.730;10.088;2022-09-03T12:55:56;27.70;77.10
23251;DHT22;11794;49.730;10.088;2022-09-03T12:58:38;27.40;78.50
23251;DHT22;11794;49.730;10.088;2022-09-03T13:01:16;27.00;78.90
23251;DHT22;11794;49.730;10.088;2022-09-03T13:06:25;26.60;79.90
23251;DHT22;11794;49.730;10.088;2022-09-03T13:09:04;26.40;80.30
23251;DHT22;11794;49.730;10.088;2022-09-03T13:11:33;26.20;80.50
23251;DHT22;11794;49.730;10.088;2022-09-03T13:14:03;26.00;80.90
23251;DHT22;11794;49.730;10.088;2022-09-03T13:25:00;25.00;83.90
23251;DHT22;11794;49.730;10.088;2022-09-03T13:30:21;25.40;83.70
23251;DHT22;11794;49.730;10.088;2022-09-03T13:35:53;25.90;84.00
23251;DHT22;11794;49.730;10.088;2022-09-03T13:38:45;26.20;82.20
23251;DHT22;11794;49.730;10.088;2022-09-03T13:41:18;26.50;81.50
23251;DHT22;11794;49.730;10.088;2022-09-03T13:43:47;26.90;81.10
23251;DHT22;11794;49.730;10.088;2022-09-03T13:49:01;27.50;79.70
23251;DHT22;11794;49.730;10.088;2022-09-03T13:51:57;27.60;79.20
23251;DHT22;11794;49.730;10.088;2022-09-03T13:54:33;27.80;79.80
23251;DHT22;11794;49.730;10.088;2022-09-03T14:00:36;28.10;78.30
23251;DHT22;11794;49.730;10.088;2022-09-03T14:03:17;28.30;78.10
23251;DHT22;11794;49.730;10.088;2022-09-03T14:09:00;29.30;76.50
23251;DHT22;11794;49.730;10.088;2022-09-03T14:14:12;29.50;75.10
23251;DHT22;11794;49.730;10.088;2022-09-03T14:21:53;28.00;78.10
23251;DHT22;11794;49.730;10.088;2022-09-03T14:24:28;27.60;78.80
23251;DHT22;11794;49.730;10.088;2022-09-03T14:26:57;27.40;79.40
23251;DHT22;11794;49.730;10.088;2022-09-03T14:29:30;27.50;79.80
23251;DHT22;11794;49.730;10.088;2022-09-03T14:32:25;27.40;79.30
23251;DHT22;11794;49.730;10.088;2022-09-03T14:40:24;28.90;77.40
23251;DHT22;11794;49.730;10.088;2022-09-03T14:45:48;30.00;74.10
23251;DHT22;11794;49.730;10.088;2022-09-03T14:51:44;29.60;74.80
23251;DHT22;11794;49.730;10.088;2022-09-03T14:57:53;30.10;73.60
23251;DHT22;11794;49.730;10.088;2022-09-03T15:00:35;30.80;72.80
23251;DHT22;11794;49.730;10.088;2022-09-03T15:06:13;29.40;74.00
23251;DHT22;11794;49.730;10.088;2022-09-03T15:09:10;28.90;75.00
23251;DHT22;11794;49.730;10.088;2022-09-03T15:11:54;28.70;76.10
23251;DHT22;11794;49.730;10.088;2022-09-03T15:14:34;28.20;77.00
23251;DHT22;11794;49.730;10.088;2022-09-03T15:17:24;27.80;77.90
23251;DHT22;11794;49.730;10.088;2022-09-03T15:20:19;27.40;78.30
23251;DHT22;11794;49.730;10.088;2022-09-03T15:22:53;27.30;79.10
23251;DHT22;11794;49.730;10.088;2022-09-03T15:28:37;27.60;78.70
23251;DHT22;11794;49.730;10.088;2022-09-03T15:33:51;27.00;79.60
23251;DHT22;11794;49.730;10.088;2022-09-03T15:36:26;26.90;80.70
23251;DHT22;11794;49.730;10.088;2022-09-03T15:39:12;27.00;80.30
23251;DHT22;11794;49.730;10.088;2022-09-03T15:41:47;27.00;79.90
23251;DHT22;11794;49.730;10.088;2022-09-03T15:44:16;27.10;80.20
23251;DHT22;11794;49.730;10.088;2022-09-03T15:46:46;27.20;79.60
23251;DHT22;11794;49.730;10.088;2022-09-03T15:49:27;27.30;79.30
23251;DHT22;11794;49.730;10.088;2022-09-03T15:55:05;27.10;79.90
23251;DHT22;11794;49.730;10.088;2022-09-03T15:58:25;27.00;80.30
23251;DHT22;11794;49.730;10.088;2022-09-03T16:03:18;26.50;81.20
23251;DHT22;11794;49.730;10.088;2022-09-03T16:05:53;26.40;80.90
23251;DHT22;11794;49.730;10.088;2022-09-03T16:08:42;26.30;81.50
23251;DHT22;11794;49.730;10.088;2022-09-03T16:14:11;26.40;82.40
23251;DHT22;11794;49.730;10.088;2022-09-03T16:16:53;26.40;81.60
23251;DHT22;11794;49.730;10.088;2022-09-03T16:21:58;26.20;82.90
23251;DHT22;11794;49.730;10.088;2022-09-03T16:27:19;26.10;82.60
23251;DHT22;11794;49.730;10.088;2022-09-03T16:44:38;25.50;84.80
23251;DHT22;11794;49.730;10.088;2022-09-03T16:47:49;25.30;84.70
23251;DHT22;11794;49.730;10.088;2022-09-03T16:56:10;25.10;85.10
23251;DHT22;11794;49.730;10.088;2022-09-03T16:59:16;25.00;85.50
23251;DHT22;11794;49.730;10.088;2022-09-03T17:02:01;24.90;85.70
23251;DHT22;11794;49.730;10.088;2022-09-03T17:07:24;24.70;86.00
23251;DHT22;11794;49.730;10.088;2022-09-03T17:10:06;24.70;86.00
23251;DHT22;11794;49.730;10.088;2022-09-03T17:13:07;24.60;86.60
23251;DHT22;11794;49.730;10.088;2022-09-03T17:15:43;24.50;87.20
23251;DHT22;11794;49.730;10.088;2022-09-03T17:18:40;24.10;88.00
23251;DHT22;11794;49.730;10.088;2022-09-03T17:29:54;23.10;94.70
23251;DHT22;11794;49.730;10.088;2022-09-03T17:35:21;22.60;96.80
23251;DHT22;11794;49.730;10.088;2022-09-03T17:38:42;22.50;97.60
23251;DHT22;11794;49.730;10.088;2022-09-03T17:44:04;22.20;99.10
23251;DHT22;11794;49.730;10.088;2022-09-03T17:49:24;22.10;99.90
23251;DHT22;11794;49.730;10.088;2022-09-03T17:54:54;22.00;99.90
23251;DHT22;11794;49.730;10.088;2022-09-03T17:57:24;22.00;99.90
23251;DHT22;11794;49.730;10.088;2022-09-03T18:00:08;21.90;99.90
23251;DHT22;11794;49.730;10.088;2022-09-03T18:03:00;21.90;99.90
23251;DHT22;11794;49.730;10.088;2022-09-03T18:05:47;21.90;99.90
23251;DHT22;11794;49.730;10.088;2022-09-03T18:08:21;21.90;99.90
23251;DHT22;11794;49.730;10.088;2022-09-03T18:11:09;21.80;99.90
23251;DHT22;11794;49.730;10.088;2022-09-03T18:18:46;21.60;99.90
23251;DHT22;11794;49.730;10.088;2022-09-03T18:21:19;21.50;99.90
23251;DHT22;11794;49.730;10.088;2022-09-03T18:27:43;21.30;99.90
23251;DHT22;11794;49.730;10.088;2022-09-03T18:30:28;21.20;99.90
23251;DHT22;11794;49.730;10.088;2022-09-03T18:33:12;21.10;99.90
23251;DHT22;11794;49.730;10.088;2022-09-03T18:35:58;20.90;99.90
23251;DHT22;11794;49.730;10.088;2022-09-03T18:38:42;20.60;99.90
23251;DHT22;11794;49.730;10.088;2022-09-03T18:41:33;20.50;99.90
23251;DHT22;11794;49.730;10.088;2022-09-03T18:47:47;20.20;99.90
23251;DHT22;11794;49.730;10.088;2022-09-03T18:50:48;19.90;99.90
23251;DHT22;11794;49.730;10.088;2022-09-03T18:53:52;19.80;99.90
23251;DHT22;11794;49.730;10.088;2022-09-03T18:56:49;19.80;99.90
23251;DHT22;11794;49.730;10.088;2022-09-03T19:02:28;19.50;99.90
23251;DHT22;11794;49.730;10.088;2022-09-03T19:05:42;19.50;99.90
23251;DHT22;11794;49.730;10.088;2022-09-03T19:08:43;19.40;99.90
23251;DHT22;11794;49.730;10.088;2022-09-03T19:11:35;19.40;99.90
23251;DHT22;11794;49.730;10.088;2022-09-03T19:14:56;19.30;99.90
23251;DHT22;11794;49.730;10.088;2022-09-03T19:18:29;19.20;99.90
23251;DHT22;11794;49.730;10.088;2022-09-03T19:21:32;19.10;99.90
23251;DHT22;11794;49.730;10.088;2022-09-03T19:24:22;19.00;99.90
23251;DHT22;11794;49.730;10.088;2022-09-03T19:30:08;18.80;99.90
23251;DHT22;11794;49.730;10.088;2022-09-03T19:33:14;18.80;99.90
23251;DHT22;11794;49.730;10.088;2022-09-03T19:36:22;18.80;99.90
23251;DHT22;11794;49.730;10.088;2022-09-03T19:39:35;18.70;99.90
23251;DHT22;11794;49.730;10.088;2022-09-03T19:45:49;18.50;99.90
23251;DHT22;11794;49.730;10.088;2022-09-03T19:54:25;17.90;99.90
23251;DHT22;11794;49.730;10.088;2022-09-03T19:57:13;17.80;99.90
23251;DHT22;11794;49.730;10.088;2022-09-03T19:59:59;17.90;99.90
23251;DHT22;11794;49.730;10.088;2022-09-03T20:02:47;17.90;99.90
23251;DHT22;11794;49.730;10.088;2022-09-03T20:05:31;17.70;99.90
23251;DHT22;11794;49.730;10.088;2022-09-03T20:08:16;17.60;99.90
23251;DHT22;11794;49.730;10.088;2022-09-03T20:11:03;17.50;99.90
23251;DHT22;11794;49.730;10.088;2022-09-03T20:13:30;17.50;99.90